| time (UTC) | temp F | wind direction | speed MPH | gust MPH | rain 1hr in | rain 24hr in | rain mn in | humidity % | barometer mb |
| 20260502194546 | 75 | 15 | 9.0 | 16.0 | 0.00 | 0.01 | 0.00 | 47 | 1021.5 |
| 20260502194035 | 75 | 79 | 4.0 | 16.0 | 0.00 | 0.01 | 0.00 | 52 | 1021.5 |
| 20260502193533 | 73 | 37 | 9.0 | 17.0 | 0.00 | 0.01 | 0.00 | 48 | 1021.6 |
| 20260502193045 | 74 | 97 | 9.0 | 17.0 | 0.00 | 0.01 | 0.00 | 46 | 1021.5 |
| 20260502192532 | 74 | 87 | 5.0 | 13.0 | 0.00 | 0.01 | 0.00 | 49 | 1021.6 |
| 20260502192032 | 75 | 79 | 8.0 | 15.0 | 0.00 | 0.01 | 0.00 | 50 | 1021.6 |
| 20260502191551 | 74 | 99 | 7.0 | 15.0 | 0.00 | 0.01 | 0.00 | 49 | 1021.7 |
| 20260502191036 | 74 | 107 | 9.0 | 15.0 | 0.00 | 0.01 | 0.00 | 57 | 1021.6 |
| 20260502190533 | 74 | 72 | 8.0 | 15.0 | 0.00 | 0.01 | 0.00 | 50 | 1021.7 |
| 20260502190056 | 73 | 46 | 6.0 | 17.0 | 0.00 | 0.01 | 0.00 | 52 | 1021.7 |
| 20260502185533 | 73 | 112 | 9.0 | 17.0 | 0.00 | 0.01 | 0.00 | 53 | 1021.6 |
| 20260502185032 | 73 | 74 | 9.0 | 16.0 | 0.00 | 0.01 | 0.00 | 50 | 1021.8 |
| 20260502184551 | 73 | 66 | 5.0 | 15.0 | 0.00 | 0.01 | 0.00 | 52 | 1021.8 |
| 20260502184033 | 73 | 85 | 8.0 | 15.0 | 0.00 | 0.01 | 0.00 | 51 | 1021.9 |
| 20260502183534 | 73 | 82 | 6.0 | 16.0 | 0.00 | 0.01 | 0.00 | 53 | 1022.1 |
| 20260502183052 | 72 | 79 | 4.0 | 18.0 | 0.00 | 0.01 | 0.00 | 53 | 1022.0 |
| 20260502182533 | 72 | 88 | 10.0 | 18.0 | 0.00 | 0.01 | 0.00 | 50 | 1022.2 |
| 20260502182033 | 72 | 95 | 11.0 | 18.0 | 0.00 | 0.01 | 0.00 | 53 | 1022.1 |
| 20260502181552 | 72 | 76 | 9.0 | 17.0 | 0.00 | 0.01 | 0.00 | 51 | 1022.3 |
| 20260502181034 | 72 | 83 | 7.0 | 19.0 | 0.00 | 0.01 | 0.00 | 53 | 1022.4 |
| 20260502180533 | 71 | 76 | 9.0 | 19.0 | 0.00 | 0.01 | 0.00 | 54 | 1022.4 |
| 20260502164033 | 70 | 81 | 11.0 | 21.0 | 0.00 | 0.23 | 0.00 | 56 | 1022.9 |
| 20260502163533 | 69 | 76 | 10.0 | 21.0 | 0.00 | 0.23 | 0.00 | 54 | 1022.9 |
| 20260502163057 | 69 | 79 | 9.0 | 19.0 | 0.00 | 0.23 | 0.00 | 58 | 1023.0 |
| 20260502162533 | 69 | 105 | 12.0 | 19.0 | 0.00 | 0.23 | 0.00 | 53 | 1022.9 |
| 20260502162038 | 68 | 33 | 12.0 | 19.0 | 0.00 | 0.23 | 0.00 | 56 | 1023.0 |
| 20260502161543 | 68 | 47 | 10.0 | 18.0 | 0.00 | 0.23 | 0.00 | 57 | 1023.0 |
| 20260502161033 | 68 | 70 | 10.0 | 22.0 | 0.00 | 0.23 | 0.00 | 55 | 1023.0 |
| 20260502160533 | 68 | 73 | 11.0 | 22.0 | 0.00 | 0.23 | 0.00 | 57 | 1023.0 |
| 20260502152034 | 65 | 37 | 8.0 | 17.0 | 0.00 | 0.23 | 0.00 | 57 | 1022.5 |
| 20260502151604 | 65 | 51 | 10.0 | 18.0 | 0.00 | 0.23 | 0.00 | 58 | 1022.5 |
| 20260502151033 | 65 | 27 | 8.0 | 18.0 | 0.00 | 0.23 | 0.00 | 59 | 1022.5 |
| 20260502150534 | 64 | 74 | 9.0 | 17.0 | 0.00 | 0.23 | 0.00 | 60 | 1022.5 |
| 20260502140111 | 57 | 12 | 3.0 | 13.0 | 0.00 | 0.27 | 0.00 | 78 | 1021.7 |
| 20260502130534 | 52 | 35 | 6.0 | 10.0 | 0.00 | 0.28 | 0.00 | 89 | 1021.5 |
| 20260502123532 | 50 | 23 | 3.0 | 10.0 | 0.00 | 0.54 | 0.00 | 90 | 1020.8 |
| 20260502123046 | 50 | 360 | 4.0 | 10.0 | 0.00 | 0.54 | 0.00 | 90 | 1020.8 |
| 20260502122533 | 50 | 340 | 3.0 | 10.0 | 0.00 | 0.54 | 0.00 | 90 | 1020.7 |
| 20260502122034 | 49 | 327 | 4.0 | 10.0 | 0.00 | 0.54 | 0.00 | 90 | 1020.7 |
| 20260502121545 | 49 | 351 | 5.0 | 10.0 | 0.00 | 0.54 | 0.00 | 90 | 1020.6 |
| 20260502121032 | 49 | 349 | 4.0 | 9.0 | 0.00 | 0.54 | 0.00 | 90 | 1020.6 |
| 20260502120535 | 49 | 351 | 3.0 | 9.0 | 0.00 | 0.54 | 0.00 | 90 | 1020.5 |
| 20260502115533 | 49 | 356 | 4.0 | 9.0 | 0.00 | 0.54 | 0.00 | 90 | 1020.3 |
| 20260502115032 | 49 | 4 | 2.0 | 9.0 | 0.00 | 0.54 | 0.00 | 90 | 1020.3 |
| 20260502114549 | 49 | 356 | 3.0 | 9.0 | 0.00 | 0.54 | 0.00 | 90 | 1020.2 |
| 20260502114030 | 49 | 350 | 4.0 | 9.0 | 0.00 | 0.54 | 0.00 | 90 | 1020.2 |
| 20260502113531 | 49 | 2 | 3.0 | 9.0 | 0.00 | 0.54 | 0.00 | 90 | 1020.1 |
| 20260502113052 | 49 | 330 | 2.0 | 9.0 | 0.00 | 0.54 | 0.00 | 90 | 1020.1 |
| 20260502112529 | 49 | 301 | 4.0 | 10.0 | 0.00 | 0.54 | 0.00 | 90 | 1020.2 |
| 20260502112032 | 49 | 332 | 3.0 | 10.0 | 0.00 | 0.54 | 0.00 | 90 | 1020.2 |
| 20260502111549 | 49 | 331 | 4.0 | 10.0 | 0.00 | 0.54 | 0.00 | 90 | 1020.2 |
| 20260502111033 | 49 | 311 | 3.0 | 6.0 | 0.00 | 0.54 | 0.00 | 90 | 1020.2 |
| 20260502110529 | 49 | 358 | 2.0 | 6.0 | 0.00 | 0.54 | 0.00 | 90 | 1020.2 |
| 20260502110100 | 49 | 345 | 1.0 | 5.0 | 0.00 | 0.54 | 0.00 | 90 | 1020.2 |
| 20260502105534 | 49 | 340 | 2.0 | 5.0 | 0.00 | 0.83 | 0.00 | 90 | 1020.2 |
| 20260502105033 | 49 | 7 | 1.0 | 4.0 | 0.00 | 0.83 | 0.00 | 90 | 1020.1 |
| 20260502104550 | 49 | 358 | 0.0 | 3.0 | 0.00 | 0.83 | 0.00 | 90 | 1020.1 |
| 20260502104033 | 49 | 357 | 1.0 | 3.0 | 0.00 | 0.83 | 0.00 | 90 | 1020.1 |
| 20260502103532 | 49 | 311 | 1.0 | 6.0 | 0.00 | 0.83 | 0.00 | 90 | 1020.0 |
| 20260502103105 | 49 | 307 | 1.0 | 6.0 | 0.00 | 0.83 | 0.00 | 90 | 1020.1 |
| 20260502102530 | 49 | 309 | 1.0 | 6.0 | 0.00 | 0.83 | 0.00 | 90 | 1020.0 |
| 20260502102033 | 50 | 0 | 1.0 | 6.0 | 0.00 | 0.83 | 0.00 | 90 | 1019.9 |
| 20260502101557 | 50 | 295 | 2.0 | 6.0 | 0.00 | 0.83 | 0.00 | 90 | 1019.9 |
| 20260502101029 | 50 | 286 | 2.0 | 8.0 | 0.00 | 0.83 | 0.00 | 90 | 1019.9 |
| 20260502100530 | 50 | 320 | 2.0 | 8.0 | 0.00 | 0.83 | 0.00 | 90 | 1019.9 |
| 20260502091033 | 50 | 311 | 2.0 | 4.0 | 0.00 | 0.98 | 0.00 | 89 | 1019.2 |
| 20260502090530 | 50 | 317 | 2.0 | 4.0 | 0.00 | 0.98 | 0.00 | 89 | 1019.1 |
| 20260502090112 | 50 | 345 | 2.0 | 4.0 | 0.00 | 0.98 | 0.00 | 89 | 1018.9 |
| 20260502071035 | 52 | 0 | 1.0 | 6.0 | 0.00 | 1.59 | 0.00 | 87 | 1018.3 |
| 20260502070534 | 52 | 31 | 2.0 | 6.0 | 0.00 | 1.59 | 0.00 | 87 | 1018.2 |
| 20260502070109 | 52 | 38 | 3.0 | 6.0 | 0.00 | 1.59 | 0.00 | 86 | 1018.1 |
| 20260502065534 | 52 | 16 | 2.0 | 7.0 | 0.00 | 1.65 | 0.00 | 86 | 1018.2 |
| 20260502065033 | 52 | 0 | 3.0 | 7.0 | 0.00 | 1.65 | 0.00 | 86 | 1018.3 |
| 20260502064604 | 52 | 56 | 2.0 | 6.0 | 0.00 | 1.65 | 0.00 | 86 | 1018.3 |
| 20260502064033 | 52 | 33 | 3.0 | 6.0 | 0.00 | 1.65 | 0.00 | 86 | 1018.4 |
| 20260502063533 | 52 | 32 | 2.0 | 7.0 | 0.00 | 1.65 | 0.00 | 86 | 1018.5 |
| 20260502063054 | 52 | 21 | 3.0 | 7.0 | 0.00 | 1.65 | 0.00 | 86 | 1018.5 |
| 20260502062532 | 52 | 20 | 3.0 | 8.0 | 0.00 | 1.65 | 0.00 | 86 | 1018.6 |
| 20260502062033 | 53 | 39 | 3.0 | 9.0 | 0.00 | 1.65 | 0.00 | 86 | 1018.5 |
| 20260502061549 | 53 | 24 | 4.0 | 9.0 | 0.00 | 1.65 | 0.00 | 86 | 1018.4 |
| 20260502061035 | 53 | 38 | 4.0 | 9.0 | 0.00 | 1.65 | 0.00 | 86 | 1018.3 |
| 20260502060533 | 53 | 11 | 4.0 | 10.0 | 0.00 | 1.65 | 0.00 | 86 | 1018.4 |
| 20260502060051 | 53 | 33 | 4.0 | 10.0 | 0.00 | 1.65 | 0.00 | 85 | 1018.3 |
| 20260502055534 | 53 | 41 | 6.0 | 9.0 | 0.00 | 2.14 | 0.00 | 85 | 1018.3 |
| 20260502055036 | 53 | 37 | 4.0 | 9.0 | 0.00 | 2.14 | 0.00 | 85 | 1018.3 |
| 20260502054554 | 53 | 56 | 3.0 | 12.0 | 0.00 | 2.14 | 0.00 | 85 | 1018.5 |
| 20260502054035 | 53 | 29 | 6.0 | 12.0 | 0.00 | 2.14 | 0.00 | 85 | 1018.6 |
| 20260502053533 | 53 | 32 | 4.0 | 12.0 | 0.00 | 2.14 | 0.00 | 85 | 1018.6 |
| 20260502053048 | 53 | 38 | 5.0 | 12.0 | 0.00 | 2.14 | 0.00 | 85 | 1018.6 |
| 20260502052535 | 53 | 27 | 4.0 | 12.0 | 0.00 | 2.14 | 0.00 | 85 | 1018.5 |
| 20260502052034 | 53 | 43 | 4.0 | 12.0 | 0.00 | 2.14 | 0.00 | 85 | 1018.5 |
| 20260502051553 | 54 | 46 | 6.0 | 12.0 | 0.00 | 2.14 | 0.00 | 85 | 1018.5 |
| 20260502051033 | 54 | 50 | 4.0 | 10.0 | 0.00 | 2.14 | 0.00 | 85 | 1018.4 |
| 20260502050534 | 54 | 25 | 4.0 | 10.0 | 0.00 | 2.14 | 0.00 | 84 | 1018.4 |
| 20260502050046 | 54 | 28 | 3.0 | 10.0 | 0.00 | 2.14 | 0.00 | 84 | 1018.3 |
| 20260502045533 | 54 | 5 | 3.0 | 10.0 | 0.00 | 2.38 | 2.14 | 84 | 1018.2 |
| 20260502045034 | 54 | 0 | 3.0 | 15.0 | 0.00 | 2.38 | 2.14 | 84 | 1018.0 |
| 20260502044543 | 54 | 45 | 7.0 | 15.0 | 0.00 | 2.38 | 2.14 | 84 | 1017.6 |
| 20260502044033 | 54 | 66 | 7.0 | 15.0 | 0.00 | 2.38 | 2.14 | 84 | 1017.5 |
| 20260502043534 | 54 | 59 | 8.0 | 15.0 | 0.00 | 2.38 | 2.14 | 85 | 1017.4 |
| 20260502043051 | 55 | 45 | 9.0 | 15.0 | 0.00 | 2.38 | 2.14 | 85 | 1018.0 |
| 20260502042533 | 55 | 45 | 7.0 | 18.0 | 0.00 | 2.38 | 2.14 | 85 | 1018.3 |
| 20260502042035 | 55 | 43 | 9.0 | 18.0 | 0.00 | 2.38 | 2.14 | 85 | 1018.3 |
| 20260502041558 | 55 | 36 | 5.0 | 15.0 | 0.00 | 2.38 | 2.14 | 85 | 1018.4 |
| 20260502041036 | 55 | 36 | 8.0 | 15.0 | 0.00 | 2.38 | 2.14 | 85 | 1018.3 |
| 20260502040533 | 55 | 26 | 5.0 | 16.0 | 0.00 | 2.38 | 2.14 | 85 | 1018.0 |
| 20260502040049 | 55 | 25 | 9.0 | 17.0 | 0.00 | 2.38 | 2.14 | 85 | 1017.9 |
| 20260502035533 | 55 | 48 | 10.0 | 17.0 | 0.00 | 2.38 | 2.14 | 85 | 1017.8 |
| 20260502035034 | 55 | 37 | 10.0 | 17.0 | 0.00 | 2.38 | 2.14 | 84 | 1017.9 |
| 20260502034547 | 55 | 51 | 8.0 | 15.0 | 0.00 | 2.38 | 2.14 | 84 | 1017.9 |
| 20260502034033 | 55 | 48 | 6.0 | 12.0 | 0.00 | 2.38 | 2.14 | 84 | 1018.0 |
| 20260502033533 | 55 | 64 | 6.0 | 14.0 | 0.00 | 2.38 | 2.14 | 83 | 1018.0 |
| 20260502033048 | 55 | 29 | 7.0 | 17.0 | 0.00 | 2.38 | 2.14 | 83 | 1017.9 |
| 20260502032536 | 55 | 35 | 7.0 | 17.0 | 0.00 | 2.38 | 2.14 | 83 | 1017.7 |
| 20260502032036 | 55 | 28 | 10.0 | 17.0 | 0.00 | 2.38 | 2.14 | 83 | 1017.5 |
| 20260502031547 | 55 | 40 | 11.0 | 17.0 | 0.00 | 2.38 | 2.14 | 83 | 1017.6 |
| 20260502031035 | 56 | 47 | 8.0 | 20.0 | 0.00 | 2.38 | 2.14 | 84 | 1017.6 |
| 20260502030533 | 56 | 62 | 7.0 | 20.0 | 0.00 | 2.38 | 2.14 | 84 | 1017.5 |
| 20260502030054 | 56 | 56 | 11.0 | 20.0 | 0.00 | 2.38 | 2.14 | 84 | 1017.2 |
| 20260502025534 | 56 | 24 | 8.0 | 18.0 | 0.00 | 2.38 | 2.14 | 85 | 1017.2 |
| 20260502025034 | 56 | 64 | 6.0 | 18.0 | 0.00 | 2.38 | 2.14 | 85 | 1017.2 |
| 20260502024558 | 56 | 51 | 11.0 | 21.0 | 0.00 | 2.38 | 2.14 | 85 | 1017.1 |
| 20260502024035 | 56 | 62 | 10.0 | 25.0 | 0.00 | 2.38 | 2.14 | 85 | 1017.0 |
| 20260502023533 | 57 | 18 | 12.0 | 25.0 | 0.00 | 2.38 | 2.14 | 85 | 1016.9 |
| 20260502023102 | 57 | 28 | 8.0 | 20.0 | 0.00 | 2.38 | 2.14 | 85 | 1016.8 |
| 20260502022533 | 57 | 41 | 10.0 | 19.0 | 0.00 | 2.38 | 2.14 | 85 | 1016.7 |
| 20260502022035 | 57 | 37 | 10.0 | 21.0 | 0.00 | 2.38 | 2.14 | 85 | 1016.6 |
| 20260502021543 | 57 | 60 | 9.0 | 21.0 | 0.00 | 2.38 | 2.14 | 85 | 1016.6 |
| 20260502021033 | 57 | 43 | 13.0 | 23.0 | 0.00 | 2.38 | 2.14 | 85 | 1016.5 |
| 20260502020541 | 57 | 76 | 13.0 | 23.0 | 0.00 | 2.38 | 2.14 | 85 | 1016.3 |
| 20260502020053 | 57 | 60 | 9.0 | 23.0 | 0.00 | 2.38 | 2.14 | 85 | 1016.2 |
| 20260502015533 | 57 | 8 | 8.0 | 23.0 | 0.00 | 2.38 | 2.14 | 85 | 1016.0 |
| 20260502015033 | 57 | 32 | 10.0 | 23.0 | 0.00 | 2.38 | 2.14 | 85 | 1015.9 |
| 20260502014549 | 58 | 21 | 13.0 | 23.0 | 0.00 | 2.38 | 2.14 | 85 | 1015.8 |
| 20260502014033 | 58 | 56 | 9.0 | 23.0 | 0.00 | 2.38 | 2.14 | 85 | 1015.8 |
| 20260502013532 | 58 | 30 | 12.0 | 23.0 | 0.00 | 2.38 | 2.14 | 85 | 1015.6 |
| 20260502013047 | 58 | 49 | 10.0 | 22.0 | 0.00 | 2.38 | 2.14 | 85 | 1015.5 |
| 20260502012533 | 58 | 28 | 7.0 | 20.0 | 0.00 | 2.38 | 2.14 | 85 | 1015.5 |
| 20260502012034 | 58 | 38 | 7.0 | 20.0 | 0.00 | 2.38 | 2.14 | 85 | 1015.4 |
| 20260502011547 | 58 | 52 | 11.0 | 20.0 | 0.00 | 2.38 | 2.14 | 85 | 1015.3 |
| 20260502011034 | 59 | 50 | 7.0 | 16.0 | 0.00 | 2.38 | 2.14 | 85 | 1015.2 |
| 20260502010533 | 59 | 63 | 8.0 | 19.0 | 0.00 | 2.38 | 2.14 | 85 | 1015.1 |
| 20260502010055 | 59 | 1 | 7.0 | 20.0 | 0.00 | 2.38 | 2.14 | 84 | 1015.0 |
| 20260502005534 | 59 | 22 | 13.0 | 21.0 | 0.00 | 2.38 | 2.14 | 84 | 1015.0 |
| 20260502005032 | 59 | 29 | 10.0 | 21.0 | 0.00 | 2.38 | 2.14 | 84 | 1014.8 |
| 20260502004547 | 59 | 30 | 11.0 | 23.0 | 0.00 | 2.38 | 2.14 | 84 | 1014.6 |
| 20260502004033 | 59 | 25 | 10.0 | 23.0 | 0.00 | 2.38 | 2.14 | 84 | 1014.4 |
| 20260502003531 | 60 | 26 | 15.0 | 23.0 | 0.00 | 2.38 | 2.14 | 85 | 1014.4 |
| 20260502003049 | 60 | 10 | 8.0 | 19.0 | 0.00 | 2.38 | 2.14 | 85 | 1014.3 |
| 20260502002531 | 60 | 39 | 9.0 | 21.0 | 0.00 | 2.38 | 2.14 | 85 | 1014.2 |
| 20260502002031 | 60 | 66 | 13.0 | 21.0 | 0.00 | 2.38 | 2.14 | 85 | 1014.1 |
| 20260502001605 | 60 | 355 | 9.0 | 20.0 | 0.00 | 2.38 | 2.14 | 85 | 1014.0 |
| 20260502001031 | 60 | 70 | 8.0 | 21.0 | 0.00 | 2.38 | 2.14 | 84 | 1014.0 |
| 20260502000530 | 60 | 22 | 9.0 | 22.0 | 0.00 | 2.38 | 2.14 | 84 | 1013.9 |
| 20260501235530 | 60 | 7 | 11.0 | 19.0 | 0.00 | 2.38 | 2.14 | 85 | 1013.9 |
| 20260501235033 | 61 | 345 | 9.0 | 19.0 | 0.00 | 2.38 | 2.14 | 85 | 1013.8 |
| 20260501234546 | 61 | 37 | 10.0 | 19.0 | 0.00 | 2.38 | 2.14 | 85 | 1013.6 |
| 20260501234033 | 61 | 30 | 7.0 | 21.0 | 0.00 | 2.38 | 2.14 | 85 | 1013.4 |
| 20260501233530 | 61 | 49 | 11.0 | 21.0 | 0.00 | 2.38 | 2.14 | 84 | 1013.3 |
| 20260501233043 | 61 | 57 | 11.0 | 20.0 | 0.00 | 2.38 | 2.14 | 84 | 1013.2 |
| 20260501232531 | 61 | 47 | 11.0 | 20.0 | 0.00 | 2.38 | 2.14 | 84 | 1013.1 |
| 20260501232031 | 62 | 64 | 10.0 | 21.0 | 0.00 | 2.38 | 2.14 | 84 | 1013.0 |
| 20260501231542 | 62 | 30 | 11.0 | 21.0 | 0.00 | 2.38 | 2.14 | 85 | 1012.7 |
| 20260501231031 | 62 | 26 | 11.0 | 25.0 | 0.00 | 2.38 | 2.14 | 84 | 1012.8 |
| 20260501230534 | 62 | 15 | 12.0 | 25.0 | 0.00 | 2.38 | 2.14 | 84 | 1012.7 |
| 20260501230049 | 63 | 54 | 10.0 | 22.0 | 0.00 | 2.38 | 2.14 | 85 | 1012.4 |
| 20260501225536 | 62 | 37 | 7.0 | 20.0 | 0.00 | 2.38 | 2.14 | 87 | 1012.3 |
| 20260501225035 | 61 | 33 | 11.0 | 22.0 | 0.00 | 2.38 | 2.14 | 86 | 1012.4 |
| 20260501224605 | 62 | 22 | 10.0 | 25.0 | 0.00 | 2.38 | 2.14 | 86 | 1012.2 |
| 20260501224035 | 62 | 21 | 11.0 | 25.0 | 0.00 | 2.38 | 2.14 | 86 | 1012.1 |
| 20260501223535 | 62 | 60 | 13.0 | 25.0 | 0.00 | 2.38 | 2.14 | 87 | 1012.2 |
| 20260501223047 | 62 | 8 | 9.0 | 22.0 | 0.00 | 2.38 | 2.14 | 88 | 1012.1 |
| 20260501222538 | 62 | 3 | 10.0 | 22.0 | 0.00 | 2.38 | 2.14 | 89 | 1011.9 |
| 20260501222033 | 62 | 18 | 11.0 | 19.0 | 0.00 | 2.38 | 2.14 | 89 | 1011.9 |
| 20260501221547 | 62 | 13 | 8.0 | 20.0 | 0.00 | 2.38 | 2.14 | 90 | 1012.1 |
| 20260501221034 | 62 | 32 | 9.0 | 24.0 | 0.00 | 2.38 | 2.14 | 89 | 1012.1 |
| 20260501220535 | 63 | 23 | 10.0 | 24.0 | 0.00 | 2.38 | 2.14 | 88 | 1012.1 |
| 20260501220044 | 63 | 359 | 10.0 | 19.0 | 0.00 | 2.38 | 2.14 | 89 | 1012.2 |
| 20260501215536 | 62 | 39 | 11.0 | 21.0 | 0.00 | 2.38 | 2.14 | 90 | 1012.4 |
| 20260501215033 | 61 | 14 | 9.0 | 22.0 | 0.00 | 2.38 | 2.14 | 90 | 1012.5 |
| 20260501214549 | 61 | 359 | 8.0 | 22.0 | 0.00 | 2.38 | 2.14 | 90 | 1012.5 |
| 20260501214032 | 62 | 332 | 11.0 | 22.0 | 0.01 | 2.38 | 2.14 | 90 | 1012.4 |
| 20260501213532 | 62 | 16 | 8.0 | 18.0 | 0.01 | 2.38 | 2.14 | 91 | 1012.5 |
| 20260501213048 | 62 | 8 | 7.0 | 18.0 | 0.01 | 2.38 | 2.14 | 91 | 1012.3 |
| 20260501212533 | 62 | 16 | 7.0 | 18.0 | 0.01 | 2.38 | 2.14 | 92 | 1012.2 |
| 20260501212036 | 62 | 16 | 7.0 | 17.0 | 0.01 | 2.38 | 2.14 | 92 | 1012.1 |
| 20260501211547 | 62 | 301 | 7.0 | 17.0 | 0.01 | 2.38 | 2.14 | 92 | 1012.0 |
| 20260501211033 | 62 | 297 | 5.0 | 16.0 | 0.01 | 2.38 | 2.14 | 92 | 1012.1 |
| 20260501210533 | 63 | 352 | 5.0 | 17.0 | 0.01 | 2.38 | 2.14 | 92 | 1011.9 |
| 20260501210047 | 63 | 345 | 9.0 | 19.0 | 0.01 | 2.38 | 2.14 | 92 | 1011.9 |
| 20260501205536 | 63 | 8 | 7.0 | 20.0 | 0.01 | 2.38 | 2.14 | 91 | 1012.0 |
| 20260501205035 | 63 | 26 | 8.0 | 20.0 | 0.01 | 2.38 | 2.14 | 91 | 1011.8 |
| 20260501204546 | 63 | 4 | 8.0 | 20.0 | 0.01 | 2.38 | 2.14 | 90 | 1011.9 |
| 20260501204033 | 63 | 332 | 8.0 | 20.0 | 0.00 | 2.36 | 2.13 | 88 | 1012.0 |
| 20260501203533 | 63 | 345 | 10.0 | 18.0 | 0.00 | 2.36 | 2.13 | 88 | 1012.4 |
| 20260501203047 | 63 | 299 | 6.0 | 20.0 | 0.00 | 2.36 | 2.13 | 88 | 1012.3 |
| 20260501202533 | 64 | 360 | 9.0 | 20.0 | 0.00 | 2.36 | 2.13 | 88 | 1012.1 |
| 20260501202033 | 64 | 323 | 10.0 | 18.0 | 0.00 | 2.36 | 2.13 | 88 | 1012.3 |
| 20260501201549 | 64 | 18 | 9.0 | 18.0 | 0.00 | 2.36 | 2.13 | 88 | 1012.5 |
| 20260501201036 | 64 | 332 | 7.0 | 18.0 | 0.00 | 2.36 | 2.13 | 88 | 1012.4 |
| 20260501200533 | 65 | 355 | 7.0 | 19.0 | 0.00 | 2.36 | 2.13 | 88 | 1012.1 |
| 20260501200050 | 65 | 14 | 8.0 | 19.0 | 0.00 | 2.36 | 2.13 | 88 | 1012.0 |
| 20260501195533 | 65 | 313 | 6.0 | 16.0 | 0.00 | 2.36 | 2.13 | 89 | 1012.0 |
| 20260501195034 | 65 | 345 | 4.0 | 16.0 | 0.00 | 2.36 | 2.13 | 88 | 1012.2 |